Latest Weather Observations for Browse Island

IDW60801

Issued at 7:05 pm WST Tuesday 2 September 2014 (issued every 30 minutes, with the page automatically refreshed every 10 minutes)

About weather observations | Map of weather stations | Latest weather observations for WA | Other Formats
Station Details ID: 200784 Name: BROWSE ISLAND Lat: -14.11 Lon: 123.55 Height: 3.7 m
Data from the previous 72 hours. | See also: Recent months for locations in Western Australia
Date/Time
WST
Temp
°C
App
Temp
°C
Dew
Point
Rel
Hum
%
Delta-T
°C
Wind Press
QNH
hPa
Press
MSL
hPa
Rain
since 9 am
mm
Dir
 
Spd
km/h
Gust
km/h
Spd
kts
Gust
kts
02/07:00pm 25.9 - - - - WSW 7 9 4 5 1013.0 1013.5 -
02/06:30pm 26.0 - - - - WSW 9 9 5 5 1013.0 - -
02/06:00pm 26.2 - - - - SW 9 11 5 6 1013.0 1013.0 -
02/05:30pm 26.0 - - - - SW 11 - 6 - 1012.0 - -
02/05:00pm 26.4 - - - - SSW 11 - 6 - 1012.0 1012.5 -
02/04:30pm 27.0 - - - - S 11 - 6 - 1012.0 - -
02/04:00pm 26.7 - - - - S 13 - 7 - 1012.0 1012.5 -
02/03:30pm 27.0 - - - - S 15 - 8 - 1012.0 - -
02/03:00pm 27.0 - - - - S 17 - 9 - 1012.0 1012.4 -
02/02:30pm 27.0 - - - - S 15 - 8 - 1012.0 - -
02/02:00pm 27.3 - - - - S 17 - 9 - 1012.0 1012.8 -
02/01:30pm 27.0 - - - - S 17 - 9 - 1013.0 - -
02/01:00pm 26.7 - - - - S 19 - 10 - 1013.0 1013.5 -
02/12:30pm 27.0 - - - - S 19 - 10 - 1014.0 - -
02/12:00pm 26.6 - - - - S 19 - 10 - 1014.0 1014.2 -
02/11:30am 26.0 - - - - S 17 - 9 - 1014.0 - -
02/11:00am 26.2 - - - - S 15 - 8 - 1014.0 1014.7 -
02/10:30am 26.0 - - - - SSE 15 - 8 - 1015.0 - -
02/10:00am 26.2 - - - - S 17 - 9 - 1015.0 1015.5 -
02/09:30am 26.0 - - - - S 15 - 8 - 1016.0 - -
02/09:00am 25.8 - - - - SSE 15 - 8 - 1016.0 1015.9 -
02/08:30am 26.0 - - - - SSE 15 - 8 - 1015.0 - -
02/08:00am 25.6 - - - - SSE 13 - 7 - 1015.0 1015.6 -
02/07:30am 25.0 - - - - SSE 13 - 7 - 1015.0 - -
02/07:00am 25.3 - - - - SE 13 - 7 - 1015.0 1015.1 -
02/06:30am 25.0 - - - - SE 11 - 6 - 1015.0 - -
02/06:00am 25.1 - - - - SE 13 - 7 - 1014.0 1014.8 -
02/05:30am 25.0 - - - - SE 9 - 5 - 1014.0 - -
02/05:00am 25.0 - - - - E 7 - 4 - 1014.0 1014.3 -
02/04:30am 25.0 - - - - E 7 - 4 - 1014.0 - -
02/04:00am 24.8 - - - - E 7 - 4 - 1014.0 1014.0 -
02/03:30am 25.0 - - - - E 7 - 4 - 1014.0 - -
02/03:00am 25.2 - - - - ESE 7 - 4 - 1014.0 1014.0 -
02/02:30am 25.0 - - - - ESE 6 - 3 - 1014.0 - -
02/02:00am 25.2 - - - - ESE 7 - 4 - 1013.0 1013.8 -
02/01:30am 25.0 - - - - SE 7 - 4 - 1014.0 - -
02/01:00am 25.4 - - - - SE 7 - 4 - 1014.0 1014.0 -
02/12:30am 26.0 - - - - SE 9 - 5 - 1014.0 - -
02/12:00am 25.6 - - - - SE 7 - 4 - 1014.0 1014.4 -
 
Date/Time
WST
Temp
°C
App
Temp
°C
Dew
Point
Rel
Hum
%
Delta-T
°C
Wind Press
QNH
hPa
Press
MSL
hPa
Rain
since 9 am
mm
Dir
 
Spd
km/h
Gust
km/h
Spd
kts
Gust
kts
01/11:30pm 26.0 - - - - SSE 13 - 7 - 1014.0 - -
01/11:00pm 26.0 - - - - S 15 - 8 - 1014.0 1014.8 -
01/10:30pm 26.0 - - - - S 15 - 8 - 1014.0 - -
01/10:00pm 25.9 - - - - S 15 - 8 - 1014.0 1014.6 -
01/09:30pm 26.0 - - - - S 17 - 9 - 1014.0 - -
01/09:00pm 26.0 - - - - S 19 - 10 - 1014.0 1014.5 -
01/08:30pm 26.0 - - - - S 19 - 10 - 1014.0 - -
01/08:00pm 25.9 - - - - S 19 - 10 - 1014.0 1014.0 -
01/07:30pm 26.0 - - - - SSW 20 - 11 - 1013.0 - -
01/07:00pm 25.9 - - - - SSW 19 - 10 - 1013.0 1013.3 -
01/06:30pm 26.0 - - - - SSW 17 - 9 - 1013.0 - -
01/06:00pm 26.0 - - - - SSW 15 - 8 - 1013.0 1013.0 -
01/05:30pm 26.0 - - - - S 17 - 9 - 1013.0 - -
01/05:00pm 26.2 - - - - S 17 - 9 - 1013.0 1012.9 -
01/04:30pm 26.0 - - - - S 19 - 10 - 1013.0 - -
01/04:00pm 26.5 - - - - SSE 19 - 10 - 1012.0 1012.8 -
01/03:30pm 27.0 - - - - SSE 17 - 9 - 1012.0 - -
01/03:00pm 27.0 - - - - SSE 17 - 9 - 1012.0 1012.6 -
01/02:30pm 27.0 - - - - SSE 15 - 8 - 1012.0 - -
01/02:00pm 26.6 - - - - SSE 15 - 8 - 1012.0 1012.8 -
01/01:30pm 27.0 - - - - SSE 17 - 9 - 1013.0 - -
01/01:00pm 26.4 - - - - SSE 15 - 8 - 1013.0 1013.2 -
01/12:30pm 27.0 - - - - SSE 15 - 8 - 1013.0 - -
01/12:00pm 26.5 - - - - SSE 15 - 8 - 1014.0 1014.0 -
01/11:30am 27.0 - - - - SSE 15 - 8 - 1014.0 - -
01/11:00am 26.8 - - - - SSE 15 - 8 - 1014.0 1014.7 -
01/10:30am 27.0 - - - - SE 13 - 7 - 1015.0 - -
01/10:00am 26.6 - - - - SE 13 - 7 - 1015.0 1015.4 -
01/09:30am 26.0 - - - - SE 13 - 7 - 1015.0 - -
01/09:00am 25.6 - - - - SSE 13 - 7 - 1015.0 1015.7 -
01/08:30am 26.0 - - - - SE 13 - 7 - 1015.0 - -
01/08:00am 26.0 - - - - SE 11 - 6 - 1015.0 1015.5 -
01/07:30am 25.0 - - - - SE 9 - 5 - 1015.0 - -
01/07:00am 25.2 - - - - SE 7 - 4 - 1015.0 1014.9 -
01/06:30am 25.0 - - - - CALM 0 - 0 - 1014.0 - -
01/06:00am 24.6 - - - - CALM 0 - 0 - 1014.0 1014.5 -
01/05:30am 25.0 - - - - E 6 - 3 - 1014.0 - -
01/05:00am 24.8 - - - - SE 7 - 4 - 1014.0 1014.0 -
01/04:30am 25.0 - - - - ESE 7 - 4 - 1013.0 - -
01/04:00am 24.9 - - - - ESE 6 - 3 - 1013.0 1013.6 -
01/03:30am 25.0 - - - - SE 7 - 4 - 1013.0 - -
01/03:00am 24.9 - - - - SSE 9 - 5 - 1013.0 1013.3 -
01/02:30am 25.0 - - - - SSE 7 - 4 - 1013.0 - -
01/02:00am 25.3 - - - - SSE 7 - 4 - 1013.0 1013.2 -
01/01:30am 25.0 - - - - SSE 7 - 4 - 1013.0 - -
01/01:00am 25.3 - - - - SE 6 - 3 - 1013.0 1013.0 -
01/12:30am 25.0 - - - - ESE 4 - 2 - 1013.0 - -
01/12:00am 25.5 - - - - SSE 7 - 4 - 1013.0 1013.3 -
 
Date/Time
WST
Temp
°C
App
Temp
°C
Dew
Point
Rel
Hum
%
Delta-T
°C
Wind Press
QNH
hPa
Press
MSL
hPa
Rain
since 9 am
mm
Dir
 
Spd
km/h
Gust
km/h
Spd
kts
Gust
kts
31/11:30pm 26.0 - - - - S 9 - 5 - 1013.0 - -
31/11:00pm 25.5 - - - - S 9 - 5 - 1013.0 1013.5 -
31/10:30pm 26.0 - - - - S 9 - 5 - 1013.0 - -
31/10:00pm 25.6 - - - - S 9 - 5 - 1013.0 1013.4 -
31/09:30pm 26.0 - - - - S 6 - 3 - 1013.0 - -
31/09:00pm 25.6 - - - - S 6 - 3 - 1013.0 1013.4 -
31/08:30pm 26.0 - - - - SSW 11 - 6 - 1013.0 - -
31/08:00pm 25.6 - - - - SW 9 - 5 - 1013.0 1013.0 -
31/07:30pm 26.0 - - - - SW 9 - 5 - 1013.0 - -
31/07:00pm 25.8 - - - - SSW 9 - 5 - 1012.0 1012.6 -
31/06:30pm 26.0 - - - - S 9 - 5 - 1012.0 - -
31/06:00pm 25.9 - - - - S 9 - 5 - 1012.0 1012.4 -
31/05:30pm 26.0 - - - - S 13 - 7 - 1012.0 - -
31/05:00pm 26.1 - - - - SSE 15 - 8 - 1012.0 1012.1 -
31/04:30pm 26.0 - - - - SSE 15 - 8 - 1012.0 - -
31/04:00pm 26.4 - - - - SSE 15 - 8 - 1012.0 1012.0 -
31/03:30pm 27.0 - - - - SSE 15 - 8 - 1012.0 - -
31/03:00pm 26.8 - - - - SSE 17 - 9 - 1012.0 1012.1 -
31/02:30pm 27.0 - - - - SE 17 - 9 - 1012.0 - -
31/02:00pm 27.1 - - - - SE 17 - 9 - 1012.0 1012.5 -
31/01:30pm 27.0 - - - - SE 17 - 9 - 1012.0 - -
31/01:00pm 26.8 - - - - SSE 17 - 9 - 1013.0 1013.0 -
31/12:30pm 26.0 - - - - SSE 19 - 10 - 1013.0 - -
31/12:00pm 26.3 - - - - S 17 - 9 - 1013.0 1013.6 -
31/11:30am 26.0 - - - - S 15 - 8 - 1014.0 - -
31/11:00am 26.0 - - - - S 17 - 9 - 1014.0 1014.5 -
31/10:30am 26.0 - - - - SSE 17 - 9 - 1015.0 - -
31/10:00am 26.1 - - - - SSE 17 - 9 - 1015.0 1015.2 -
31/09:30am 26.0 - - - - SSE 15 - 8 - 1015.0 - -
31/09:00am 26.4 - - - - SSE 15 - 8 - 1015.0 1015.4 -
31/08:30am 26.0 - - - - SSE 15 - 8 - 1015.0 - -
31/08:00am 25.5 - - - - SSE 13 - 7 - 1015.0 1015.1 -
31/07:30am 25.0 - - - - SSE 15 - 8 - 1014.0 - -
31/07:00am 25.3 - - - - SE 13 - 7 - 1014.0 1014.5 -
31/06:30am 25.0 - - - - SE 11 - 6 - 1014.0 - -
31/06:00am 25.0 - - - - SE 11 - 6 - 1014.0 1014.1 -
31/05:30am 25.0 - - - - SE 13 - 7 - 1014.0 - -
31/05:00am 24.8 - - - - SSE 13 - 7 - 1013.0 1013.6 -
31/04:30am 25.0 - - - - SE 13 - 7 - 1013.0 - -
31/04:00am 25.3 - - - - SE 11 - 6 - 1013.0 1013.4 -
31/03:30am 25.0 - - - - SE 11 - 6 - 1013.0 - -
31/03:00am 25.3 - - - - ESE 9 - 5 - 1013.0 1013.3 -
31/02:30am 25.0 - - - - ESE 11 - 6 - 1013.0 - -
31/02:00am 25.1 - - - - E 11 - 6 - 1013.0 1013.2 -
31/01:30am 25.0 - - - - ESE 9 - 5 - 1013.0 - -
31/01:00am 25.2 - - - - SE 9 - 5 - 1013.0 1013.5 -
31/12:30am 25.0 - - - - SE 11 - 6 - 1013.0 - -
31/12:00am 25.3 - - - - SSE 11 - 6 - 1014.0 1013.9 -
 
Date/Time
WST
Temp
°C
App
Temp
°C
Dew
Point
Rel
Hum
%
Delta-T
°C
Wind Press
QNH
hPa
Press
MSL
hPa
Rain
since 9 am
mm
Dir
 
Spd
km/h
Gust
km/h
Spd
kts
Gust
kts
30/11:30pm 25.0 - - - - SSE 11 - 6 - 1013.0 - -
30/11:00pm 25.5 - - - - S 15 - 8 - 1013.0 1013.8 -
30/10:30pm 26.0 - - - - S 13 - 7 - 1013.0 - -
30/10:00pm 25.7 - - - - S 15 - 8 - 1013.0 1013.8 -
30/09:30pm 25.0 - - - - S 15 - 8 - 1014.0 - -
30/09:00pm 25.6 - - - - SSW 17 - 9 - 1014.0 1014.0 -
30/08:30pm 25.0 - - - - SSW 17 - 9 - 1014.0 - -
30/08:00pm 25.4 - - - - SSW 15 - 8 - 1013.0 1013.8 -
30/07:30pm 26.0 - - - - SSW 13 - 7 - 1013.0 - -

Other Formats:

Comma delimited format used in spreadsheet applications
http://www.bom.gov.au/fwo/IDW60801/IDW60801.94103.axf

JavaScript Object Notation format (JSON) in row-major order
http://www.bom.gov.au/fwo/IDW60801/IDW60801.94103.json